Time;durP1;ratioP1;P1;durP2;ratioP2;P2;SDS_P1;SDS_P2;PMS_P1;PMS_P2;Temp;Humidity;BMP_temperature;BMP_pressure;BME280_temperature;BME280_humidity;BME280_pressure;Samples;Min_cycle;Max_cycle;Signal;HPM_P1;HPM_P2
2021/01/14 00:00:00;;;;;;;34.00;4.60;;;;;;;;;;5028998;28;20017;-74
2021/01/14 00:02:26;;;;;;;32.17;3.95;;;;;;;;;;5009784;28;20383;-74
2021/01/14 00:04:52;;;;;;;22.50;4.35;;;;;;;;;;5022717;28;20020;-74
2021/01/14 00:07:19;;;;;;;20.05;5.28;;;;;;;;;;5028104;28;20116;-74
2021/01/14 00:09:45;;;;;;;23.67;4.70;;;;;;;;;;5030137;28;20169;-74
2021/01/14 00:12:12;;;;;;;19.05;5.07;;;;;;;;;;5020397;28;20109;-75
2021/01/14 00:14:38;;;;;;;26.90;4.82;;;;;;;;;;5026726;28;20022;-75
2021/01/14 00:17:04;;;;;;;22.60;4.45;;;;;;;;;;5024462;28;20033;-75
2021/01/14 00:19:30;;;;;;;22.55;6.18;;;;;;;;;;5026905;28;20022;-75
2021/01/14 00:21:57;;;;;;;21.05;4.40;;;;;;;;;;5023004;28;20300;-76
2021/01/14 00:24:23;;;;;;;23.70;4.05;;;;;;;;;;5025473;28;20103;-76
2021/01/14 00:26:49;;;;;;;24.65;6.35;;;;;;;;;;5026227;28;20025;-76
2021/01/14 00:29:15;;;;;;;27.92;4.30;;;;;;;;;;5025756;28;20037;-76
2021/01/14 00:31:41;;;;;;;21.77;4.68;;;;;;;;;;5021725;28;20030;-76
2021/01/14 00:34:08;;;;;;;27.77;4.55;;;;;;;;;;5020853;28;20029;-76
2021/01/14 00:37:50;;;;;;;15.90;4.45;;;;;;;;;;5013808;28;20025;-76
2021/01/14 00:39:21;;;;;;;28.48;4.45;;;;;;;;;;5026302;28;20514;-76
2021/01/14 00:41:47;;;;;;;33.83;5.70;;;;;;;;;;5027305;28;20036;-76
2021/01/14 00:44:13;;;;;;;23.52;5.25;;;;;;;;;;5019841;28;20084;-77
2021/01/14 00:46:39;;;;;;;36.65;5.47;;;;;;;;;;5023183;28;20121;-76
2021/01/14 00:49:06;;;;;;;34.67;6.32;;;;;;;;;;5020242;28;20040;-76
2021/01/14 00:51:38;;;;;;;24.73;5.13;;;;;;;;;;5023782;28;20481;-77
2021/01/14 00:54:05;;;;;;;29.33;4.70;;;;;;;;;;5012837;28;20022;-76
2021/01/14 00:56:35;;;;;;;29.48;4.63;;;;;;;;;;5018265;28;20077;-76
2021/01/14 00:59:01;;;;;;;18.38;4.45;;;;;;;;;;5028280;28;20021;-77
2021/01/14 01:01:28;;;;;;;35.70;6.97;;;;;;;;;;5027791;28;20517;-76
2021/01/14 01:03:54;;;;;;;26.08;4.60;;;;;;;;;;5026454;28;20101;-77
2021/01/14 01:06:21;;;;;;;21.05;6.05;;;;;;;;;;5019420;28;20517;-77
2021/01/14 01:08:48;;;;;;;23.88;4.60;;;;;;;;;;5024870;28;20037;-78
2021/01/14 01:11:14;;;;;;;24.00;4.88;;;;;;;;;;5024084;28;20025;-78
2021/01/14 01:13:40;;;;;;;28.75;5.22;;;;;;;;;;5022786;28;20191;-78
2021/01/14 01:16:06;;;;;;;27.05;4.80;;;;;;;;;;5028496;28;20033;-79
2021/01/14 01:18:34;;;;;;;38.92;5.03;;;;;;;;;;5028977;28;20121;-79
2021/01/14 01:21:04;;;;;;;21.08;5.05;;;;;;;;;;5017887;28;20026;-79
2021/01/14 01:23:30;;;;;;;19.63;4.43;;;;;;;;;;5017262;28;20022;-80
2021/01/14 01:25:56;;;;;;;32.70;5.35;;;;;;;;;;5023548;28;20080;-80
2021/01/14 01:28:22;;;;;;;28.48;6.13;;;;;;;;;;5023779;28;20030;-80
2021/01/14 01:30:48;;;;;;;22.67;4.70;;;;;;;;;;5023946;28;20029;-79
2021/01/14 01:33:14;;;;;;;32.78;5.28;;;;;;;;;;5023903;28;20032;-80
2021/01/14 01:35:40;;;;;;;33.63;5.45;;;;;;;;;;5024680;28;20029;-80
2021/01/14 01:38:06;;;;;;;26.83;5.65;;;;;;;;;;5027621;28;20505;-80
2021/01/14 01:40:32;;;;;;;28.13;5.43;;;;;;;;;;5019166;28;20069;-79
2021/01/14 01:42:58;;;;;;;22.58;4.45;;;;;;;;;;5026857;28;20045;-78
2021/01/14 01:45:25;;;;;;;25.30;3.40;;;;;;;;;;5032712;28;20044;-78
2021/01/14 01:47:51;;;;;;;22.27;3.70;;;;;;;;;;5031907;28;20029;-77
2021/01/14 01:50:20;;;;;;;19.98;3.25;;;;;;;;;;5019271;28;20029;-77
2021/01/14 01:52:46;;;;;;;32.75;3.90;;;;;;;;;;5025843;28;20032;-76
2021/01/14 01:55:12;;;;;;;28.00;3.97;;;;;;;;;;5021695;28;20112;-76
2021/01/14 01:57:40;;;;;;;16.85;3.75;;;;;;;;;;5029834;28;20028;-77
2021/01/14 02:00:06;;;;;;;32.38;3.53;;;;;;;;;;5017147;28;20049;-76
2021/01/14 02:02:32;;;;;;;23.38;3.35;;;;;;;;;;5025150;28;20117;-76
2021/01/14 02:04:59;;;;;;;24.40;3.60;;;;;;;;;;5020361;28;20046;-76
2021/01/14 02:07:30;;;;;;;29.95;3.75;;;;;;;;;;5023884;28;20048;-76
2021/01/14 02:09:57;;;;;;;32.63;3.38;;;;;;;;;;5026872;28;20433;-77
2021/01/14 02:12:33;;;;;;;17.75;3.83;;;;;;;;;;5028182;28;20115;-77
2021/01/14 02:15:00;;;;;;;15.57;3.03;;;;;;;;;;5032260;28;20498;-77
2021/01/14 02:17:27;;;;;;;24.95;2.75;;;;;;;;;;5024230;28;20053;-77
2021/01/14 02:19:55;;;;;;;24.95;3.45;;;;;;;;;;5028272;28;20035;-77
2021/01/14 02:22:24;;;;;;;21.95;3.20;;;;;;;;;;5028664;28;20026;-77
2021/01/14 02:24:55;;;;;;;22.63;4.18;;;;;;;;;;5026196;28;20025;-77
2021/01/14 02:27:22;;;;;;;17.60;3.15;;;;;;;;;;5020023;28;20241;-77
2021/01/14 02:29:48;;;;;;;18.75;2.85;;;;;;;;;;5026916;28;20030;-77
2021/01/14 02:32:17;;;;;;;18.92;3.65;;;;;;;;;;5029035;28;20009;-77
2021/01/14 02:34:44;;;;;;;16.95;3.85;;;;;;;;;;5019084;28;20028;-78
2021/01/14 02:37:10;;;;;;;13.82;2.67;;;;;;;;;;5026058;28;20083;-77
2021/01/14 02:39:37;;;;;;;13.98;2.72;;;;;;;;;;5025988;28;20494;-77
2021/01/14 02:42:03;;;;;;;22.45;3.45;;;;;;;;;;5026856;28;20228;-78
2021/01/14 02:44:29;;;;;;;22.27;2.95;;;;;;;;;;5030225;28;20192;-77
2021/01/14 02:46:59;;;;;;;15.38;2.92;;;;;;;;;;5028318;28;20033;-77
2021/01/14 02:49:27;;;;;;;20.58;2.55;;;;;;;;;;5025023;28;20022;-77
2021/01/14 02:51:58;;;;;;;17.70;4.18;;;;;;;;;;5023533;28;20120;-77
2021/01/14 02:54:24;;;;;;;26.17;5.25;;;;;;;;;;5031588;28;20168;-77
2021/01/14 02:56:51;;;;;;;21.48;5.07;;;;;;;;;;5024743;28;20022;-75
2021/01/14 02:59:17;;;;;;;26.15;8.27;;;;;;;;;;5027982;28;20129;-75
2021/01/14 03:01:44;;;;;;;20.40;6.47;;;;;;;;;;5026082;28;20026;-75
2021/01/14 03:04:10;;;;;;;22.17;4.47;;;;;;;;;;5021731;28;20025;-76
2021/01/14 03:06:36;;;;;;;21.58;4.72;;;;;;;;;;5029716;28;20520;-77
2021/01/14 03:09:03;;;;;;;18.13;3.92;;;;;;;;;;5022788;28;20014;-77
2021/01/14 03:11:30;;;;;;;21.98;5.22;;;;;;;;;;5029106;28;20021;-76
2021/01/14 03:13:56;;;;;;;27.48;4.63;;;;;;;;;;5022822;28;20033;-78
2021/01/14 03:16:22;;;;;;;19.90;4.00;;;;;;;;;;5027853;28;20029;-74
2021/01/14 03:18:49;;;;;;;15.80;2.35;;;;;;;;;;5029901;28;20095;-77
2021/01/14 03:21:33;;;;;;;9.73;2.40;;;;;;;;;;5026479;28;20017;-73
2021/01/14 03:23:59;;;;;;;14.57;2.45;;;;;;;;;;5026063;28;20681;-76
2021/01/14 03:26:26;;;;;;;15.80;2.58;;;;;;;;;;5026654;28;20105;-75
2021/01/14 03:28:52;;;;;;;21.85;2.92;;;;;;;;;;5029088;28;20025;-76
2021/01/14 03:31:18;;;;;;;13.25;1.73;;;;;;;;;;5031542;28;20029;-75
2021/01/14 03:33:45;;;;;;;18.92;3.08;;;;;;;;;;5027347;28;20037;-76
2021/01/14 03:36:15;;;;;;;17.40;2.17;;;;;;;;;;5023623;28;20033;-76
2021/01/14 03:38:41;;;;;;;17.70;3.15;;;;;;;;;;5023623;28;20120;-75
2021/01/14 03:41:11;;;;;;;15.45;2.47;;;;;;;;;;5026690;28;20037;-75
2021/01/14 03:43:37;;;;;;;16.90;3.42;;;;;;;;;;5028150;28;20036;-76
2021/01/14 03:46:08;;;;;;;22.65;3.17;;;;;;;;;;5029842;28;20021;-76
2021/01/14 03:48:38;;;;;;;17.00;2.10;;;;;;;;;;5021100;28;20026;-76
2021/01/14 03:51:04;;;;;;;10.23;1.90;;;;;;;;;;5029225;28;20029;-75
2021/01/14 03:53:30;;;;;;;18.30;3.38;;;;;;;;;;5021566;28;20501;-75
2021/01/14 03:55:56;;;;;;;12.00;2.78;;;;;;;;;;5028209;28;20045;-75
2021/01/14 03:58:22;;;;;;;9.55;1.58;;;;;;;;;;5020863;28;20033;-77
2021/01/14 04:00:48;;;;;;;17.80;2.55;;;;;;;;;;5028101;28;20087;-76
2021/01/14 04:03:16;;;;;;;15.70;2.22;;;;;;;;;;5018862;28;20030;-77
2021/01/14 04:05:43;;;;;;;13.48;2.33;;;;;;;;;;5030126;28;20029;-76
2021/01/14 04:08:09;;;;;;;8.45;2.40;;;;;;;;;;5021872;28;20042;-77
2021/01/14 04:10:35;;;;;;;18.58;2.40;;;;;;;;;;5023594;28;20025;-77
2021/01/14 04:13:01;;;;;;;9.43;2.00;;;;;;;;;;5021631;28;20021;-76
2021/01/14 04:15:27;;;;;;;10.98;1.67;;;;;;;;;;5029494;28;20095;-76
2021/01/14 04:17:53;;;;;;;11.88;2.55;;;;;;;;;;5017893;28;20040;-76
2021/01/14 04:20:19;;;;;;;20.63;2.88;;;;;;;;;;5022451;28;20026;-76
2021/01/14 04:22:45;;;;;;;15.98;2.70;;;;;;;;;;5020042;28;20101;-77
2021/01/14 04:25:11;;;;;;;15.68;2.67;;;;;;;;;;5026498;28;20529;-76
2021/01/14 04:27:37;;;;;;;10.40;2.13;;;;;;;;;;5017171;28;20086;-76
2021/01/14 04:30:04;;;;;;;16.35;2.13;;;;;;;;;;5017747;28;20034;-76
2021/01/14 04:32:31;;;;;;;16.98;2.75;;;;;;;;;;5024565;28;20453;-77
2021/01/14 04:34:58;;;;;;;13.65;2.50;;;;;;;;;;5026854;28;20021;-77
2021/01/14 04:37:24;;;;;;;11.07;2.08;;;;;;;;;;5021491;28;20030;-76
2021/01/14 04:39:50;;;;;;;11.68;2.97;;;;;;;;;;5017952;28;20025;-76
2021/01/14 04:42:18;;;;;;;12.02;3.55;;;;;;;;;;5025837;28;20517;-78
2021/01/14 04:44:44;;;;;;;12.90;2.30;;;;;;;;;;5029619;28;20079;-78
2021/01/14 04:47:14;;;;;;;10.00;2.22;;;;;;;;;;5028704;28;20112;-77
2021/01/14 04:49:41;;;;;;;10.05;2.67;;;;;;;;;;5028675;28;20053;-77
2021/01/14 04:52:13;;;;;;;12.20;1.98;;;;;;;;;;5025591;28;20037;-76
2021/01/14 04:54:41;;;;;;;15.32;2.53;;;;;;;;;;5023327;28;20029;-77
2021/01/14 04:57:20;;;;;;;7.60;2.42;;;;;;;;;;5023049;28;20038;-76
2021/01/14 04:59:50;;;;;;;13.05;2.80;;;;;;;;;;5028173;28;20041;-77
2021/01/14 05:02:20;;;;;;;14.30;2.83;;;;;;;;;;5018984;28;20022;-76
2021/01/14 05:04:49;;;;;;;13.43;2.83;;;;;;;;;;5023779;28;20147;-76
2021/01/14 05:07:15;;;;;;;10.82;2.70;;;;;;;;;;5017155;28;20049;-76
2021/01/14 05:09:42;;;;;;;10.60;2.78;;;;;;;;;;5027407;28;20033;-77
2021/01/14 05:12:08;;;;;;;10.30;2.10;;;;;;;;;;5026582;28;20025;-77
2021/01/14 05:14:34;;;;;;;7.10;2.03;;;;;;;;;;5011868;28;20025;-76
2021/01/14 05:17:02;;;;;;;12.13;2.03;;;;;;;;;;5026252;28;20026;-76
2021/01/14 05:19:28;;;;;;;10.75;1.80;;;;;;;;;;5019426;28;20033;-76
2021/01/14 05:21:54;;;;;;;20.92;2.72;;;;;;;;;;5031261;28;20021;-73
2021/01/14 05:24:20;;;;;;;11.60;3.20;;;;;;;;;;5033586;28;20025;-73
2021/01/14 05:26:47;;;;;;;11.48;2.00;;;;;;;;;;5032746;28;20037;-73
2021/01/14 05:29:13;;;;;;;7.78;2.30;;;;;;;;;;5029054;28;20021;-73
2021/01/14 05:31:39;;;;;;;12.63;2.42;;;;;;;;;;5030321;28;20037;-73
2021/01/14 05:34:05;;;;;;;12.02;2.33;;;;;;;;;;5028793;28;20037;-73
2021/01/14 05:36:50;;;;;;;11.20;2.85;;;;;;;;;;5027603;28;20033;-73
2021/01/14 05:39:16;;;;;;;15.52;2.10;;;;;;;;;;5030660;28;20485;-74
2021/01/14 05:41:42;;;;;;;7.85;2.50;;;;;;;;;;5030434;28;20553;-75
2021/01/14 05:44:08;;;;;;;12.82;3.13;;;;;;;;;;5030701;28;20014;-75
2021/01/14 05:46:34;;;;;;;13.80;3.50;;;;;;;;;;5032652;28;20025;-76
2021/01/14 05:49:01;;;;;;;13.18;3.25;;;;;;;;;;5029924;28;20069;-76
2021/01/14 05:51:28;;;;;;;14.15;4.75;;;;;;;;;;5025465;28;20079;-75
2021/01/14 05:54:04;;;;;;;15.32;5.22;;;;;;;;;;5026093;28;20025;-75
2021/01/14 05:56:35;;;;;;;13.23;4.57;;;;;;;;;;5026631;28;20025;-75
2021/01/14 05:59:02;;;;;;;15.00;5.28;;;;;;;;;;5031346;28;20030;-75
2021/01/14 06:01:28;;;;;;;14.68;5.97;;;;;;;;;;5027427;28;20025;-75
2021/01/14 06:03:54;;;;;;;16.05;5.72;;;;;;;;;;5029410;28;20029;-76
2021/01/14 06:06:20;;;;;;;12.68;5.32;;;;;;;;;;5029243;28;20044;-76
2021/01/14 06:08:47;;;;;;;14.82;6.10;;;;;;;;;;5027103;28;20037;-76
2021/01/14 06:11:19;;;;;;;15.45;5.18;;;;;;;;;;5029769;28;20089;-76
2021/01/14 06:13:45;;;;;;;14.82;5.03;;;;;;;;;;5023136;28;20034;-76
2021/01/14 06:16:12;;;;;;;12.13;5.22;;;;;;;;;;5022724;28;20485;-77
2021/01/14 06:18:38;;;;;;;14.70;4.55;;;;;;;;;;5027783;28;20026;-76
2021/01/14 06:21:04;;;;;;;14.07;5.30;;;;;;;;;;5029218;28;20523;-76
2021/01/14 06:23:43;;;;;;;14.80;4.35;;;;;;;;;;5023070;28;20394;-76
2021/01/14 06:26:09;;;;;;;13.00;5.75;;;;;;;;;;5029648;28;20025;-75
2021/01/14 06:28:36;;;;;;;11.15;4.32;;;;;;;;;;5026668;28;20036;-75
2021/01/14 06:31:03;;;;;;;12.35;4.45;;;;;;;;;;5032755;28;20025;-75
2021/01/14 06:33:29;;;;;;;15.35;4.97;;;;;;;;;;5024400;28;20034;-72
2021/01/14 06:36:16;;;;;;;9.50;3.50;;;;;;;;;;5029818;28;20025;-73
2021/01/14 06:38:46;;;;;;;12.98;4.13;;;;;;;;;;5031200;28;20363;-72
2021/01/14 06:41:22;;;;;;;9.57;4.25;;;;;;;;;;5032211;28;20259;-73
2021/01/14 06:43:50;;;;;;;10.73;3.58;;;;;;;;;;5024458;28;20107;-73
2021/01/14 06:46:18;;;;;;;12.20;4.15;;;;;;;;;;5025982;28;20439;-73
2021/01/14 06:48:46;;;;;;;13.93;4.05;;;;;;;;;;5027988;28;20072;-72
2021/01/14 06:51:16;;;;;;;13.38;4.28;;;;;;;;;;5030369;28;20036;-73
2021/01/14 06:53:42;;;;;;;10.40;4.35;;;;;;;;;;5029512;28;20029;-74
2021/01/14 06:56:08;;;;;;;14.93;4.95;;;;;;;;;;5031015;28;20025;-74
2021/01/14 06:58:38;;;;;;;10.70;3.78;;;;;;;;;;5030170;28;20124;-73
2021/01/14 07:01:04;;;;;;;13.50;3.58;;;;;;;;;;5023064;28;20379;-73
2021/01/14 07:03:40;;;;;;;10.23;3.65;;;;;;;;;;5030404;28;20021;-73
2021/01/14 07:06:07;;;;;;;17.92;4.63;;;;;;;;;;5015848;28;20034;-72
2021/01/14 07:08:39;;;;;;;10.98;3.05;;;;;;;;;;5018844;28;20029;-73
2021/01/14 07:11:16;;;;;;;9.45;3.40;;;;;;;;;;5036598;28;20025;-73
2021/01/14 07:13:54;;;;;;;10.48;3.05;;;;;;;;;;5014530;28;20026;-73
2021/01/14 07:16:21;;;;;;;12.25;3.15;;;;;;;;;;5024996;28;20045;-73
2021/01/14 07:18:48;;;;;;;11.20;4.20;;;;;;;;;;5022317;28;20037;-72
2021/01/14 07:21:27;;;;;;;9.68;3.15;;;;;;;;;;5020933;28;20389;-72
2021/01/14 07:23:59;;;;;;;13.60;3.75;;;;;;;;;;5014999;28;20107;-73
2021/01/14 07:26:25;;;;;;;15.52;3.72;;;;;;;;;;5009154;28;20117;-73
2021/01/14 07:28:53;;;;;;;17.35;4.85;;;;;;;;;;5012254;28;20040;-72
2021/01/14 07:31:19;;;;;;;20.10;6.60;;;;;;;;;;5012743;28;20040;-73
2021/01/14 07:33:46;;;;;;;12.65;5.45;;;;;;;;;;5025160;28;20048;-73
2021/01/14 07:36:19;;;;;;;14.00;5.65;;;;;;;;;;5023311;28;20037;-72
2021/01/14 07:38:52;;;;;;;15.02;6.00;;;;;;;;;;5016148;28;20036;-73
2021/01/14 07:41:18;;;;;;;12.00;4.60;;;;;;;;;;5024182;28;20029;-74
2021/01/14 07:43:45;;;;;;;15.48;6.05;;;;;;;;;;5025320;28;20049;-73
2021/01/14 07:46:17;;;;;;;17.42;6.47;;;;;;;;;;5028053;28;20501;-72
2021/01/14 07:48:44;;;;;;;20.70;7.15;;;;;;;;;;5023204;28;20029;-73
2021/01/14 07:51:10;;;;;;;17.50;7.43;;;;;;;;;;5018371;28;20076;-72
2021/01/14 07:53:36;;;;;;;17.80;8.27;;;;;;;;;;5019996;28;20029;-74
2021/01/14 07:56:21;;;;;;;19.77;7.97;;;;;;;;;;5023350;28;20025;-74
2021/01/14 07:58:49;;;;;;;17.23;6.78;;;;;;;;;;5018221;28;20080;-74
2021/01/14 08:01:15;;;;;;;19.48;7.97;;;;;;;;;;5018382;28;20033;-73
2021/01/14 08:03:42;;;;;;;16.00;6.18;;;;;;;;;;5021870;28;20018;-74
2021/01/14 08:06:19;;;;;;;18.67;4.90;;;;;;;;;;5026286;28;20093;-73
2021/01/14 08:08:57;;;;;;;16.65;5.82;;;;;;;;;;5026292;28;20041;-74
2021/01/14 08:11:24;;;;;;;20.52;6.70;;;;;;;;;;5024994;28;20040;-74
2021/01/14 08:14:03;;;;;;;16.35;6.40;;;;;;;;;;5026345;28;20037;-74
2021/01/14 08:16:32;;;;;;;12.43;5.45;;;;;;;;;;5021812;28;20330;-74
2021/01/14 08:19:08;;;;;;;16.77;6.35;;;;;;;;;;5026180;28;20064;-75
2021/01/14 08:21:34;;;;;;;19.92;6.43;;;;;;;;;;5025502;28;20021;-75
2021/01/14 08:24:01;;;;;;;15.40;6.70;;;;;;;;;;5029298;28;20191;-75
2021/01/14 08:26:27;;;;;;;20.83;6.57;;;;;;;;;;5035178;28;21206;-75
2021/01/14 08:28:59;;;;;;;22.83;8.70;;;;;;;;;;5050637;28;20032;-75
2021/01/14 08:31:37;;;;;;;16.05;6.35;;;;;;;;;;5033619;28;20543;-75
2021/01/14 08:34:06;;;;;;;16.15;6.10;;;;;;;;;;5030807;28;20036;-76
2021/01/14 08:36:42;;;;;;;21.23;7.30;;;;;;;;;;5028622;28;20128;-75
2021/01/14 08:39:09;;;;;;;24.23;7.25;;;;;;;;;;5030271;28;20033;-74
2021/01/14 08:41:38;;;;;;;21.88;5.95;;;;;;;;;;5024816;28;20037;-75
2021/01/14 08:44:04;;;;;;;13.45;6.47;;;;;;;;;;5032783;28;20048;-76
2021/01/14 08:46:47;;;;;;;16.95;6.07;;;;;;;;;;5029633;28;20060;-75
2021/01/14 08:49:14;;;;;;;20.35;6.63;;;;;;;;;;5031814;28;20091;-75
2021/01/14 08:51:40;;;;;;;14.52;5.78;;;;;;;;;;5027643;28;20033;-76
2021/01/14 08:54:06;;;;;;;13.30;4.53;;;;;;;;;;5025013;28;20025;-76
2021/01/14 08:56:33;;;;;;;18.42;6.80;;;;;;;;;;5032955;28;20033;-76
2021/01/14 08:59:04;;;;;;;13.32;6.32;;;;;;;;;;5027455;28;20053;-76
2021/01/14 09:01:32;;;;;;;16.75;6.80;;;;;;;;;;5044262;28;20057;-75
2021/01/14 09:03:58;;;;;;;19.70;7.05;;;;;;;;;;5025914;28;20411;-75
2021/01/14 09:06:42;;;;;;;12.70;5.45;;;;;;;;;;5028175;28;20033;-76
2021/01/14 09:09:17;;;;;;;16.40;6.88;;;;;;;;;;5033310;28;20025;-75
2021/01/14 09:11:43;;;;;;;20.52;8.90;;;;;;;;;;5025214;28;20030;-76
2021/01/14 09:14:10;;;;;;;20.95;6.18;;;;;;;;;;5028953;28;20072;-76
2021/01/14 09:16:37;;;;;;;26.20;8.30;;;;;;;;;;5023250;28;20029;-77
2021/01/14 09:19:13;;;;;;;21.20;7.95;;;;;;;;;;5032748;28;20464;-78
2021/01/14 09:21:39;;;;;;;20.60;8.32;;;;;;;;;;5034802;28;20083;-76
2021/01/14 09:24:09;;;;;;;19.48;7.63;;;;;;;;;;5016175;28;20069;-76
2021/01/14 09:26:40;;;;;;;17.05;7.40;;;;;;;;;;5022899;28;20025;-76
2021/01/14 09:29:07;;;;;;;24.83;9.23;;;;;;;;;;5029502;28;20037;-76
2021/01/14 09:31:36;;;;;;;26.58;7.97;;;;;;;;;;5023007;28;20030;-75
2021/01/14 09:34:03;;;;;;;21.90;7.82;;;;;;;;;;5045314;28;20129;-75
2021/01/14 09:36:29;;;;;;;21.15;7.30;;;;;;;;;;5028852;28;20111;-76
2021/01/14 09:38:59;;;;;;;23.00;7.72;;;;;;;;;;5025180;28;20032;-77
2021/01/14 09:41:35;;;;;;;22.65;8.52;;;;;;;;;;5027223;28;20108;-77
2021/01/14 09:44:03;;;;;;;20.92;7.15;;;;;;;;;;5021212;28;20113;-77
2021/01/14 09:46:30;;;;;;;21.10;7.50;;;;;;;;;;5042039;28;20075;-77
2021/01/14 09:48:59;;;;;;;16.23;6.65;;;;;;;;;;5023260;28;20238;-78
2021/01/14 09:51:25;;;;;;;19.33;5.82;;;;;;;;;;5035642;28;20064;-78
2021/01/14 09:53:52;;;;;;;14.75;7.70;;;;;;;;;;5024591;28;20040;-77
2021/01/14 09:56:18;;;;;;;15.35;5.63;;;;;;;;;;5021785;28;20117;-78
2021/01/14 09:58:45;;;;;;;16.75;7.05;;;;;;;;;;5029092;28;20028;-77
2021/01/14 10:01:15;;;;;;;28.20;10.65;;;;;;;;;;5033457;28;20243;-79
2021/01/14 10:03:45;;;;;;;18.27;6.47;;;;;;;;;;5026760;28;20386;-78
2021/01/14 10:06:11;;;;;;;24.27;11.35;;;;;;;;;;5032195;28;20021;-79
2021/01/14 10:08:40;;;;;;;20.30;7.85;;;;;;;;;;5029146;28;20021;-78
2021/01/14 10:11:06;;;;;;;22.38;9.73;;;;;;;;;;5032084;28;20041;-78
2021/01/14 10:13:32;;;;;;;20.52;7.80;;;;;;;;;;5029440;28;20084;-77
2021/01/14 10:16:11;;;;;;;22.58;8.63;;;;;;;;;;5034015;28;20129;-77
2021/01/14 10:18:37;;;;;;;37.45;10.13;;;;;;;;;;5038691;28;20060;-77
2021/01/14 10:21:03;;;;;;;19.65;7.72;;;;;;;;;;5030389;28;20022;-78
2021/01/14 10:23:30;;;;;;;22.80;7.93;;;;;;;;;;5032249;28;20027;-78
2021/01/14 10:25:56;;;;;;;20.10;7.90;;;;;;;;;;5037683;28;20060;-77
2021/01/14 10:28:23;;;;;;;23.17;8.48;;;;;;;;;;5036135;28;20057;-77
2021/01/14 10:30:49;;;;;;;22.83;8.95;;;;;;;;;;5031156;28;20112;-78
2021/01/14 10:33:16;;;;;;;18.23;9.15;;;;;;;;;;5032185;28;20033;-78
2021/01/14 10:35:42;;;;;;;23.65;11.18;;;;;;;;;;5016930;28;20029;-78
2021/01/14 10:38:08;;;;;;;19.85;9.68;;;;;;;;;;5039052;28;20041;-78
2021/01/14 10:40:36;;;;;;;20.30;9.05;;;;;;;;;;5025079;28;20030;-77
2021/01/14 10:43:02;;;;;;;23.92;10.30;;;;;;;;;;5033211;28;20033;-78
2021/01/14 10:45:31;;;;;;;21.23;10.95;;;;;;;;;;5036108;28;20025;-79
2021/01/14 10:48:11;;;;;;;17.30;8.27;;;;;;;;;;5038408;28;20236;-79
2021/01/14 10:50:52;;;;;;;20.23;8.10;;;;;;;;;;5025549;28;20592;-80
2021/01/14 10:53:18;;;;;;;;;;;;;;;;;;5029485;28;20490;-80
2021/01/14 10:55:45;;;;;;;21.08;9.30;;;;;;;;;;5031272;28;19909;-79
2021/01/14 10:58:21;;;;;;;19.52;8.98;;;;;;;;;;5023080;28;20108;-78
2021/01/14 11:00:47;;;;;;;25.42;10.95;;;;;;;;;;5029137;28;20049;-79
2021/01/14 11:03:16;;;;;;;20.73;10.85;;;;;;;;;;5018468;28;20026;-79
2021/01/14 11:05:46;;;;;;;21.95;9.60;;;;;;;;;;5029401;28;20033;-79
2021/01/14 11:08:16;;;;;;;21.58;9.98;;;;;;;;;;5027448;28;20482;-80
2021/01/14 11:10:43;;;;;;;22.92;9.85;;;;;;;;;;5023897;28;20591;-82
2021/01/14 11:13:12;;;;;;;23.30;10.93;;;;;;;;;;5023795;28;20026;-80
2021/01/14 11:15:39;;;;;;;18.45;8.88;;;;;;;;;;5031492;28;20033;-81
2021/01/14 11:18:07;;;;;;;24.67;11.10;;;;;;;;;;5018283;28;20073;-80
2021/01/14 11:20:33;;;;;;;19.83;9.70;;;;;;;;;;5028709;28;20056;-79
2021/01/14 11:22:59;;;;;;;19.15;10.10;;;;;;;;;;5026915;28;20025;-81
2021/01/14 11:25:25;;;;;;;21.20;7.72;;;;;;;;;;5028085;28;20386;-79
2021/01/14 11:27:52;;;;;;;23.80;9.00;;;;;;;;;;5031201;28;20088;-80
2021/01/14 11:30:19;;;;;;;31.02;7.78;;;;;;;;;;5028485;28;20025;-80
2021/01/14 11:32:45;;;;;;;25.17;9.82;;;;;;;;;;5027190;28;20041;-80
2021/01/14 11:35:11;;;;;;;21.10;8.27;;;;;;;;;;5032186;28;20267;-81
2021/01/14 11:37:37;;;;;;;22.63;6.18;;;;;;;;;;5029695;28;20041;-80
2021/01/14 11:40:04;;;;;;;13.30;5.10;;;;;;;;;;5033524;28;20025;-81
2021/01/14 11:42:30;;;;;;;20.20;5.57;;;;;;;;;;5022838;28;20029;-80
2021/01/14 11:44:56;;;;;;;10.75;4.53;;;;;;;;;;5030756;28;20792;-80
2021/01/14 11:47:22;;;;;;;13.00;4.15;;;;;;;;;;5030104;28;20021;-81
2021/01/14 11:49:49;;;;;;;17.75;4.25;;;;;;;;;;5030724;28;20034;-80
2021/01/14 11:52:20;;;;;;;14.13;4.80;;;;;;;;;;5018961;28;20038;-80
2021/01/14 11:54:46;;;;;;;15.17;4.60;;;;;;;;;;5021010;28;20033;-81
2021/01/14 11:57:12;;;;;;;14.05;4.72;;;;;;;;;;5023033;28;20273;-81
2021/01/14 11:59:38;;;;;;;19.38;5.45;;;;;;;;;;5023487;28;20427;-80
2021/01/14 12:02:05;;;;;;;10.10;3.75;;;;;;;;;;5019054;28;20091;-80
2021/01/14 12:04:31;;;;;;;16.25;4.72;;;;;;;;;;5029689;28;20132;-81
2021/01/14 12:06:57;;;;;;;18.75;5.18;;;;;;;;;;5026212;28;20030;-79
2021/01/14 12:09:23;;;;;;;16.95;4.20;;;;;;;;;;5027365;28;20520;-80
2021/01/14 12:11:52;;;;;;;10.55;3.58;;;;;;;;;;5026078;28;20108;-81
2021/01/14 12:14:19;;;;;;;11.50;3.80;;;;;;;;;;5031952;28;20021;-80
2021/01/14 12:16:45;;;;;;;13.40;4.75;;;;;;;;;;5029920;28;20116;-79
2021/01/14 12:19:11;;;;;;;13.40;4.88;;;;;;;;;;5020324;28;20521;-79
2021/01/14 12:21:37;;;;;;;17.63;4.68;;;;;;;;;;5023742;28;20497;-79
2021/01/14 12:24:03;;;;;;;14.15;4.15;;;;;;;;;;5026851;28;20033;-80
2021/01/14 12:26:29;;;;;;;14.82;5.43;;;;;;;;;;5020825;28;20022;-81
2021/01/14 12:28:55;;;;;;;11.55;4.40;;;;;;;;;;5022646;28;20028;-80
2021/01/14 12:31:21;;;;;;;16.65;5.70;;;;;;;;;;5022190;28;20033;-78
2021/01/14 12:33:47;;;;;;;16.63;4.75;;;;;;;;;;5027221;28;20036;-81
2021/01/14 12:36:13;;;;;;;19.73;7.85;;;;;;;;;;5028071;28;20021;-82
2021/01/14 12:38:39;;;;;;;14.90;5.90;;;;;;;;;;5023692;28;20034;-80
2021/01/14 12:41:05;;;;;;;16.20;5.15;;;;;;;;;;5027628;28;20239;-81
2021/01/14 12:43:31;;;;;;;14.18;5.07;;;;;;;;;;5019213;28;20037;-79
2021/01/14 12:45:57;;;;;;;14.27;5.85;;;;;;;;;;5030097;28;20026;-79
2021/01/14 12:48:23;;;;;;;17.40;5.78;;;;;;;;;;5031108;28;20104;-80
2021/01/14 12:50:49;;;;;;;9.90;4.13;;;;;;;;;;5029065;28;20048;-81
2021/01/14 12:53:15;;;;;;;18.98;6.30;;;;;;;;;;5019061;28;20030;-76
2021/01/14 12:55:42;;;;;;;17.60;6.10;;;;;;;;;;5031012;28;20078;-77
2021/01/14 12:58:08;;;;;;;18.05;6.28;;;;;;;;;;5019157;28;20506;-79
2021/01/14 13:00:34;;;;;;;21.15;6.00;;;;;;;;;;5022168;28;20056;-79
2021/01/14 13:03:00;;;;;;;16.50;6.45;;;;;;;;;;5025232;28;20022;-78
2021/01/14 13:05:26;;;;;;;25.40;10.10;;;;;;;;;;5031995;28;20049;-80
2021/01/14 13:07:52;;;;;;;17.75;7.40;;;;;;;;;;5024187;28;20528;-81
2021/01/14 13:10:18;;;;;;;17.17;6.53;;;;;;;;;;5032136;28;20025;-78
2021/01/14 13:12:44;;;;;;;30.30;14.65;;;;;;;;;;5028011;28;20030;-78
2021/01/14 13:15:10;;;;;;;20.83;6.68;;;;;;;;;;5029194;28;20021;-79
2021/01/14 13:17:36;;;;;;;26.05;7.93;;;;;;;;;;5033826;28;20022;-80
2021/01/14 13:20:03;;;;;;;23.77;6.32;;;;;;;;;;5031849;28;20035;-79
2021/01/14 13:22:29;;;;;;;15.93;5.80;;;;;;;;;;5029909;28;20050;-80
2021/01/14 13:24:55;;;;;;;15.93;5.95;;;;;;;;;;5031854;28;20040;-77
2021/01/14 13:27:21;;;;;;;17.15;7.10;;;;;;;;;;5026562;28;20513;-81
2021/01/14 13:29:47;;;;;;;15.65;6.10;;;;;;;;;;5031897;28;20026;-77
2021/01/14 13:32:15;;;;;;;9.45;2.95;;;;;;;;;;5019870;28;20188;-77
2021/01/14 13:34:41;;;;;;;16.08;6.00;;;;;;;;;;5032586;28;20025;-76
2021/01/14 13:37:07;;;;;;;16.02;7.93;;;;;;;;;;5030079;28;20517;-78
2021/01/14 13:39:33;;;;;;;19.25;7.00;;;;;;;;;;5033762;28;20112;-79
2021/01/14 13:41:59;;;;;;;15.45;6.10;;;;;;;;;;5030728;28;20272;-77
2021/01/14 13:44:27;;;;;;;14.45;5.72;;;;;;;;;;5028210;28;20485;-77
2021/01/14 13:46:53;;;;;;;15.60;5.40;;;;;;;;;;5034569;28;20028;-77
2021/01/14 13:49:19;;;;;;;21.90;6.78;;;;;;;;;;5031360;28;20037;-78
2021/01/14 13:51:48;;;;;;;22.58;6.50;;;;;;;;;;5035519;28;20029;-78
2021/01/14 13:54:15;;;;;;;13.95;5.97;;;;;;;;;;5026077;28;20494;-77
2021/01/14 13:56:41;;;;;;;14.38;5.88;;;;;;;;;;5029087;28;20032;-78
2021/01/14 13:59:07;;;;;;;15.57;6.05;;;;;;;;;;5039597;28;20116;-79
2021/01/14 14:01:35;;;;;;;10.07;4.13;;;;;;;;;;5033105;28;20035;-75
2021/01/14 14:04:01;;;;;;;16.67;5.13;;;;;;;;;;5027204;28;20017;-80
2021/01/14 14:06:38;;;;;;;18.45;6.68;;;;;;;;;;5028900;28;20121;-79
2021/01/14 14:09:05;;;;;;;16.42;7.13;;;;;;;;;;5029561;28;20040;-81
2021/01/14 14:11:31;;;;;;;22.15;9.45;;;;;;;;;;5025087;28;20025;-81
2021/01/14 14:13:57;;;;;;;16.83;8.00;;;;;;;;;;5023164;28;20054;-82
2021/01/14 14:16:24;;;;;;;21.25;7.38;;;;;;;;;;5030911;28;20021;-78
2021/01/14 14:18:50;;;;;;;17.40;4.80;;;;;;;;;;5029541;28;20120;-78
2021/01/14 14:21:17;;;;;;;20.17;9.23;;;;;;;;;;5025142;28;20022;-80
2021/01/14 14:23:43;;;;;;;17.83;6.38;;;;;;;;;;5020564;28;20026;-79
2021/01/14 14:26:09;;;;;;;16.67;5.97;;;;;;;;;;5025699;28;20026;-79
2021/01/14 14:28:35;;;;;;;15.52;5.53;;;;;;;;;;5023824;28;20037;-78
2021/01/14 14:31:01;;;;;;;16.88;5.43;;;;;;;;;;5031592;28;20038;-80
2021/01/14 14:33:28;;;;;;;14.40;4.55;;;;;;;;;;5027875;28;20063;-78